Ship Status Report: callsign BAREU11

sailwx.info

Track history (hours):
 
Tides and Currents Weather Stations Pressure Air Temp Water Temp Dewpoint Dewpoint Depression Visibility Wind Speed Wind Dir Waves Ship Positions

Callsign BAREU11 (name unknown)

Last reported at 2015-Apr-18 08:00 UTC. Time now 2015-Apr-18 08:50 UTC.
Position N 18°18' W 068°18'.

Barometer 1016.2 mb

Date/timePositionNaut miles runAvg speedWind from/ knotsBaromVisibWave heightAir tempDewpointWater temp
2015-Apr-18 08:00N 18°18' W 068°18'1716.5 1016.2
2015-Apr-18 07:00N 18°30' W 068°06'8 8.3 1016.3
2015-Apr-18 06:00N 18°36' W 068°00'1313.3 1017.0
2015-Apr-18 05:00N 18°48' W 067°54'1716.5 1017.8
2015-Apr-18 04:00N 19°00' W 067°42'8 8.3 1018.4
2015-Apr-18 03:00N 19°06' W 067°36'1313.3 1018.7
2015-Apr-18 02:00N 19°18' W 067°30'1616.5 1018.7
2015-Apr-18 01:00N 19°30' W 067°18'1312.8 1018.0
2015-Apr-18 00:00N 19°36' W 067°06'1313.3 1017.8
2015-Apr-17 23:00N 19°48' W 067°00'1312.8 1017.2
2015-Apr-17 22:00N 19°54' W 066°48'1313.3 1016.9
2015-Apr-17 21:00N 20°06' W 066°42'1312.8 1016.9
2015-Apr-17 20:00N 20°12' W 066°30'1313.3 1017.3
2015-Apr-17 19:00N 20°24' W 066°24'1616.4 1018.1
2015-Apr-17 18:00N 20°36' W 066°12'8 8.2 1018.6
2015-Apr-17 17:00N 20°42' W 066°06'1616.4 1019.6
2015-Apr-17 16:00N 20°54' W 065°54'8 8.2 1020.3
2015-Apr-17 15:00N 21°00' W 065°48'1616.4 1020.8
2015-Apr-17 14:00N 21°12' W 065°36'8 8.2 1021.0
2015-Apr-17 13:00N 21°18' W 065°30'2120.6 1020.8
2015-Apr-17 12:00N 21°30' W 065°12'1616.4 1020.2
2015-Apr-17 11:00N 21°42' W 065°00'2121.2 1019.8
2015-Apr-17 10:00N 22°00' W 064°48'1616.4 1019.3
2015-Apr-17 09:00N 22°12' W 064°36'2120.5 1019.0
2015-Apr-17 08:00N 22°24' W 064°18'1616.3 1019.0
2015-Apr-17 07:00N 22°36' W 064°06'1616.3 1019.2
2015-Apr-17 06:00N 22°48' W 063°54'1616.3 1019.9
2015-Apr-17 05:00N 23°00' W 063°42'1616.3 1020.6
2015-Apr-17 04:00N 23°12' W 063°30'2020.4 1021.3
2015-Apr-17 03:00N 23°24' W 063°12'2121.1 1021.6
2015-Apr-17 02:00N 23°42' W 063°00'1616.3 1021.9
2015-Apr-17 01:00N 23°54' W 062°48'2020.4 1021.6
2015-Apr-17 00:00N 24°06' W 062°30'1616.2 1021.0
2015-Apr-16 23:00N 24°18' W 062°18'1616.2 1020.5
2015-Apr-16 22:00N 24°30' W 062°06'1616.2 1020.1
2015-Apr-16 21:00N 24°42' W 061°54'2020.3 1020.0
2015-Apr-16 20:00N 24°54' W 061°36'1616.2 1020.0
2015-Apr-16 19:00N 25°06' W 061°24'2121.0 1020.1
2015-Apr-16 18:00N 25°24' W 061°12'2020.2 1020.7
2015-Apr-16 17:00N 25°36' W 060°54'1616.2 1021.2
2015-Apr-16 16:00N 25°48' W 060°42'1616.1 1021.8
2015-Apr-16 15:00N 26°00' W 060°30'2020.1 1022.0
2015-Apr-16 14:00N 26°12' W 060°12'1616.1 1022.4
2015-Apr-16 13:00N 26°24' W 060°00'1616.1 1022.1
2015-Apr-16 12:00N 26°36' W 059°48'2020.1 1021.6
2015-Apr-16 11:00N 26°48' W 059°30'1616.1 1021.2
2015-Apr-16 10:00N 27°00' W 059°18'2020.0 1020.6
2015-Apr-16 09:00N 27°12' W 059°00'2120.9 1019.9
2015-Apr-16 08:00N 27°30' W 058°48'1616.0 1019.6
2015-Apr-16 07:00N 27°42' W 058°36'1717.0 1019.6
2015-Apr-16 06:00N 27°48' W 058°18'1616.0 1019.8
2015-Apr-16 05:00N 28°00' W 058°06'2424.0 1020.6
2015-Apr-16 04:00N 28°18' W 057°48'1616.0 1021.5
2015-Apr-16 03:00N 28°30' W 057°36'1616.0 1022.2
2015-Apr-16 02:00N 28°42' W 057°24'2019.8 1022.4
2015-Apr-16 01:00N 28°54' W 057°06'1615.9 1022.7
2015-Apr-16 00:00N 29°06' W 056°54'2019.8 1023.0
2015-Apr-15 23:00N 29°18' W 056°36'1615.9 1022.6
2015-Apr-15 22:00N 29°30' W 056°24'2019.7 1022.7
2015-Apr-15 21:00N 29°42' W 056°06'1615.9 1022.7
2015-Apr-15 20:00N 29°54' W 055°54'2019.7 1023.1
2015-Apr-15 19:00N 30°06' W 055°36'1615.9 1023.4
2015-Apr-15 18:00N 30°18' W 055°24'2019.6 1024.0
2015-Apr-15 17:00N 30°30' W 055°06'1615.8 1025.0
2015-Apr-15 16:00N 30°42' W 054°54'2019.6 1025.3
2015-Apr-15 15:00N 30°54' W 054°36'2019.5 1025.9
2015-Apr-15 14:00N 31°06' W 054°18'1615.8 1026.3
2015-Apr-15 13:00N 31°18' W 054°06'1919.5 1026.3
2015-Apr-15 12:00N 31°30' W 053°48'1615.8 1026.3
2015-Apr-15 11:00N 31°42' W 053°36'1616.4 1026.2
2015-Apr-15 10:00N 31°48' W 053°18'1919.4 1025.8
2015-Apr-15 09:00N 32°00' W 053°00'1615.7 1025.7
2015-Apr-15 08:00N 32°12' W 052°48'1919.4 1025.4
2015-Apr-15 07:00N 32°24' W 052°30'1919.4 1025.6
2015-Apr-15 06:00N 32°36' W 052°12'1615.7 1025.5
2015-Apr-15 05:00N 32°48' W 052°00'1919.3 1026.5
2015-Apr-15 04:00N 33°00' W 051°42'1615.7 1027.8
2015-Apr-15 03:00N 33°12' W 051°30'1919.2 1028.5
2015-Apr-15 02:00N 33°24' W 051°12'1616.2 1028.7
2015-Apr-15 01:00N 33°30' W 050°54'1919.2 1029.4
2015-Apr-15 00:00N 33°42' W 050°36'1615.6 1029.5
2015-Apr-14 23:00N 33°54' W 050°24'1919.1 1029.8
2015-Apr-14 22:00N 34°06' W 050°06'1919.1 1029.7
2015-Apr-14 21:00N 34°18' W 049°48'1615.6 1029.7
2015-Apr-14 20:00N 34°30' W 049°36'1919.1 1029.5
2015-Apr-14 19:00N 34°42' W 049°18'1616.0 1029.5
2015-Apr-14 18:00N 34°48' W 049°00'1919.0 1029.9
2015-Apr-14 17:00N 35°00' W 048°42'1919.0 1030.4
2015-Apr-14 16:00N 35°12' W 048°24'1919.0 1030.9
2015-Apr-14 15:00N 35°24' W 048°06'1918.9 1031.2
2015-Apr-14 14:00N 35°36' W 047°48'1918.9 1031.6
2015-Apr-14 13:00N 35°48' W 047°30'1515.4 1031.9
2015-Apr-14 12:00N 36°00' W 047°18'2322.8 1031.6
2015-Apr-14 11:00N 36°12' W 046°54'1111.4 1030.9
2015-Apr-14 10:00N 36°18' W 046°42'1918.8 1030.7
2015-Apr-14 09:00N 36°30' W 046°24'1918.8 1030.2
2015-Apr-14 08:00N 36°42' W 046°06'1615.6 1029.6
2015-Apr-14 07:00N 36°48' W 045°48'1515.4 1029.3
2015-Apr-14 06:00N 37°00' W 045°36'1918.7 1029.1
2015-Apr-14 05:00N 37°12' W 045°18'1615.5 1029.0
2015-Apr-14 04:00N 37°18' W 045°00'1918.7 1029.1
2015-Apr-14 03:00N 37°30' W 044°42'1111.2 1029.0
2015-Apr-14 02:00N 37°36' W 044°30'1918.6 1028.7
2015-Apr-14 01:00N 37°48' W 044°12'1918.6 1028.4
2015-Apr-14 00:00N 38°00' W 043°54'1515.4 1028.3
2015-Apr-13 23:00N 38°06' W 043°36'1918.5 1027.7
2015-Apr-13 22:00N 38°18' W 043°18'1918.5 1026.4
2015-Apr-13 21:00N 38°30' W 043°00'1515.3 1025.1
2015-Apr-13 20:00N 38°36' W 042°42'1818.5 1024.0
2015-Apr-13 19:00N 38°48' W 042°24'1818.4 1022.9
2015-Apr-13 18:00N 39°00' W 042°06'1515.2 1022.1
2015-Apr-13 17:00N 39°06' W 041°48'1818.4 1021.5
2015-Apr-13 16:00N 39°18' W 041°30'1515.2 1021.0
2015-Apr-13 15:00N 39°24' W 041°12'2222.1 1020.8
2015-Apr-13 14:00N 39°36' W 040°48'1818.3 1020.5
2015-Apr-13 13:00N 39°48' W 040°30'1515.1 1020.2
2015-Apr-13 12:00N 39°54' W 040°12'1818.3 1019.6
2015-Apr-13 11:00N 40°06' W 039°54'1515.0 1018.3
2015-Apr-13 10:00N 40°12' W 039°36'1818.2 1016.6
2015-Apr-13 09:00N 40°24' W 039°18'1818.2 1016.3
2015-Apr-13 08:00N 40°36' W 039°00'1514.9 1016.1
2015-Apr-13 07:00N 40°42' W 038°42'1514.9 1016.0
2015-Apr-13 06:00N 40°48' W 038°24'1818.1 1016.4
2015-Apr-13 05:00N 41°00' W 038°06'1110.9 1016.6
2015-Apr-13 04:00N 41°06' W 037°54'1514.8 1017.3
2015-Apr-13 03:00N 41°12' W 037°36'1818.1 1018.2
2015-Apr-13 02:00N 41°24' W 037°18'1514.8 1019.1
2015-Apr-13 01:00N 41°30' W 037°00'1514.7 1019.9
2015-Apr-13 00:00N 41°36' W 036°42'1818.0 1020.0
2015-Apr-12 23:00N 41°48' W 036°24'1514.7 1020.7
2015-Apr-12 22:00N 41°54' W 036°06'1514.7 1020.8
2015-Apr-12 21:00N 42°00' W 035°48'1514.7 1020.5
2015-Apr-12 20:00N 42°06' W 035°30'1514.9 1020.4
2015-Apr-12 19:00N 42°18' W 035°18'1918.7 1020.8
2015-Apr-12 18:00N 42°24' W 034°54'1514.6 1021.6
2015-Apr-12 17:00N 42°30' W 034°36'1514.6 1022.1
2015-Apr-12 16:00N 42°36' W 034°18'1817.9 1022.7
2015-Apr-12 15:00N 42°48' W 034°00'1414.5 1023.4
2015-Apr-12 14:00N 42°54' W 033°42'1817.8 1024.1
2015-Apr-12 13:00N 43°06' W 033°24'1414.4 1025.0
2015-Apr-12 12:00N 43°12' W 033°06'1414.4 1025.9
2015-Apr-12 11:00N 43°18' W 032°48'1818.5 1025.9
2015-Apr-12 10:00N 43°24' W 032°24'1817.7 1025.6
2015-Apr-12 09:00N 43°36' W 032°06'1414.3 1025.9
2015-Apr-12 08:00N 43°42' W 031°48'1818.3 1026.0
2015-Apr-12 07:00N 43°48' W 031°24'1414.3 1025.4
2015-Apr-12 06:00N 43°54' W 031°06'2121.0 1025.2
2015-Apr-12 05:00N 44°06' W 030°42'1818.2 1024.9
2015-Apr-12 04:00N 44°12' W 030°18'3517.5 1024.5
2015-Apr-12 02:00N 44°30' W 029°36'1818.1 1024.4
2015-Apr-12 01:00N 44°36' W 029°12'1414.1 1024.1
2015-Apr-12 00:00N 44°42' W 028°54'2120.8 1022.8
2015-Apr-11 23:00N 44°54' W 028°30'1414.1 1021.5
2015-Apr-11 22:00N 45°00' W 028°12'1818.0 1019.9
2015-Apr-11 21:00N 45°06' W 027°48'3517.3 1017.6
2015-Apr-11 19:00N 45°24' W 027°06'1817.9 1013.0
2015-Apr-11 18:00N 45°30' W 026°42'1817.8 1010.8
2015-Apr-11 17:00N 45°36' W 026°18'3416.8 1009.9
2015-Apr-11 15:00N 45°36' W 025°30'1817.8 1006.7
2015-Apr-11 14:00N 45°42' W 025°06'1716.8 1005.4
2015-Apr-11 13:00N 45°42' W 024°42'1716.8 1006.1
2015-Apr-11 12:00N 45°42' W 024°18'2121.0 1005.9
2015-Apr-11 11:00N 45°42' W 023°48'1716.8 1005.3
2015-Apr-11 10:00N 45°42' W 023°24'2121.0 1006.9
2015-Apr-11 09:00N 45°42' W 022°54'1716.8 1010.5
2015-Apr-11 08:00N 45°42' W 022°30'3417.0 1014.3
2015-Apr-11 06:00N 45°48' W 021°42'1817.8 1018.7
2015-Apr-11 05:00N 45°54' W 021°18'1817.7 1020.3
2015-Apr-11 04:00N 46°00' W 020°54'1716.7 1021.2
2015-Apr-11 03:00N 46°00' W 020°30'1413.9 1022.0
2015-Apr-11 02:00N 46°06' W 020°12'1817.7 1022.7
2015-Apr-11 01:00N 46°12' W 019°48'1817.6 1023.0
2015-Apr-11 00:00N 46°18' W 019°24'1413.8 1023.0
2015-Apr-10 23:00N 46°24' W 019°06'1716.6 1022.9
2015-Apr-10 22:00N 46°24' W 018°42'3115.7 1021.8
2015-Apr-10 20:00N 46°36' W 018°00'1413.7 1019.0
2015-Apr-10 19:00N 46°42' W 017°42'1616.5 1017.3
2015-Apr-10 18:00N 46°42' W 017°18'1413.7 1016.9
2015-Apr-10 17:00N 46°48' W 017°00'1717.5 1015.9
2015-Apr-10 16:00N 46°54' W 016°36'1616.4 1015.2
2015-Apr-10 15:00N 46°54' W 016°12'1413.7 1015.0
2015-Apr-10 14:00N 47°00' W 015°54'1717.4 1014.5
2015-Apr-10 13:00N 47°06' W 015°30'1413.6 1013.1
2015-Apr-10 12:00N 47°12' W 015°12'1616.3 1013.8
2015-Apr-10 11:00N 47°12' W 014°48'1717.4 1014.3
2015-Apr-10 10:00N 47°18' W 014°24'1413.6 1014.8
2015-Apr-10 09:00N 47°24' W 014°06'1717.3 1014.8
2015-Apr-10 08:00N 47°30' W 013°42'3517.3 1015.6
2015-Apr-10 06:00N 47°42' W 012°54'1717.2 1015.2
2015-Apr-10 05:00N 47°48' W 012°30'1717.0 1015.2
2015-Apr-10 04:00N 48°00' W 012°12'1717.1 1015.2
2015-Apr-10 03:00N 48°06' W 011°48'1717.1 1015.6
2015-Apr-10 02:00N 48°12' W 011°24'1717.1 1016.1
2015-Apr-10 01:00N 48°18' W 011°00'2019.9 1016.8
2015-Apr-10 00:00N 48°30' W 010°36'1313.3 1017.1
2015-Apr-09 23:00N 48°36' W 010°18'1717.0 1017.7
2015-Apr-09 22:00N 48°42' W 009°54'1716.9 1018.4
2015-Apr-09 21:00N 48°48' W 009°30'1716.9 1019.1
2015-Apr-09 20:00N 48°54' W 009°06'1716.8 1019.5
2015-Apr-09 19:00N 49°06' W 008°48'1716.8 1019.9
2015-Apr-09 18:00N 49°12' W 008°24'1716.8 1020.7
2015-Apr-09 17:00N 49°18' W 008°00'1313.2 1021.2
2015-Apr-09 16:00N 49°24' W 007°42'2020.4 1021.7
2015-Apr-09 15:00N 49°30' W 007°12'2019.6 1022.6
2015-Apr-09 14:00N 49°42' W 006°48'1615.5 1023.9
2015-Apr-09 13:00N 49°42' W 006°24'1919.4 1024.6
2015-Apr-09 12:00N 49°42' W 005°54'1615.5 1025.0
2015-Apr-09 11:00N 49°42' W 005°30'1919.4 1025.3
2015-Apr-09 10:00N 49°42' W 005°00'1716.6 1025.7
2015-Apr-09 09:00N 49°48' W 004°36'1515.5 1026.0
2015-Apr-09 08:00N 49°48' W 004°12'1716.6 1026.1
2015-Apr-09 07:00N 49°54' W 003°48'1919.3 1026.3
2015-Apr-09 06:00N 49°54' W 003°18'1716.6 1026.6
2015-Apr-09 05:00N 50°00' W 002°54'2423.9 1027.1
2015-Apr-09 04:00N 50°06' W 002°18'2020.1 1027.5
2015-Apr-09 03:00N 50°12' W 001°48'2020.1 1027.9
2015-Apr-09 02:00N 50°18' W 001°18'1616.4 1028.4
2015-Apr-09 01:00N 50°24' W 000°54'1515.3 1029.0
2015-Apr-09 00:00N 50°24' W 000°30'1616.4 1029.5
2015-Apr-08 23:00N 50°30' W 000°06'2020.0 1030.2
2015-Apr-08 22:00N 50°36' E 000°24'1616.4 1030.6
2015-Apr-08 21:00N 50°42' E 000°48'1919.3 1031.4
2015-Apr-08 20:00N 50°54' E 001°12'1919.3 1032.1
2015-Apr-08 19:00N 51°06' E 001°36'1616.5 1032.3
2015-Apr-08 18:00N 51°18' E 001°54'1312.7 1032.3
2015-Apr-08 17:00N 51°24' E 002°12'1918.7 1032.3
2015-Apr-08 16:00N 51°24' E 002°42'1111.2 1032.8
2015-Apr-08 15:00N 51°24' E 003°00'1918.7 1033.2
2015-Apr-08 14:00N 51°24' E 003°30'7 7.5 1033.9
2015-Apr-08 13:00N 51°24' E 003°42'1111.2 1034.8
2015-Apr-08 12:00N 51°24' E 004°00'7 7.5 1035.3
2015-Apr-08 11:00N 51°24' E 004°12'   1035.5
Track history (hours):
 
Tides and Currents Weather Stations Pressure Air Temp Water Temp Dewpoint Dewpoint Depression Visibility Wind Speed Wind Dir Waves Ship Positions

Callsign BAREU11 (name unknown)

Last reported at 2015-Apr-18 08:00 UTC. Time now 2015-Apr-18 08:50 UTC.
Position N 18°18' W 068°18'.

Barometer 1016.2 mb

Date/timePositionNaut miles runAvg speedWind from/ knotsBaromVisibWave heightAir tempDewpointWater temp
2015-Apr-18 08:00N 18°18' W 068°18'1716.5 1016.2
2015-Apr-18 07:00N 18°30' W 068°06'8 8.3 1016.3
2015-Apr-18 06:00N 18°36' W 068°00'1313.3 1017.0
2015-Apr-18 05:00N 18°48' W 067°54'1716.5 1017.8
2015-Apr-18 04:00N 19°00' W 067°42'8 8.3 1018.4
2015-Apr-18 03:00N 19°06' W 067°36'1313.3 1018.7
2015-Apr-18 02:00N 19°18' W 067°30'1616.5 1018.7
2015-Apr-18 01:00N 19°30' W 067°18'1312.8 1018.0
2015-Apr-18 00:00N 19°36' W 067°06'1313.3 1017.8
2015-Apr-17 23:00N 19°48' W 067°00'1312.8 1017.2
2015-Apr-17 22:00N 19°54' W 066°48'1313.3 1016.9
2015-Apr-17 21:00N 20°06' W 066°42'1312.8 1016.9
2015-Apr-17 20:00N 20°12' W 066°30'1313.3 1017.3
2015-Apr-17 19:00N 20°24' W 066°24'1616.4 1018.1
2015-Apr-17 18:00N 20°36' W 066°12'8 8.2 1018.6
2015-Apr-17 17:00N 20°42' W 066°06'1616.4 1019.6
2015-Apr-17 16:00N 20°54' W 065°54'8 8.2 1020.3
2015-Apr-17 15:00N 21°00' W 065°48'1616.4 1020.8
2015-Apr-17 14:00N 21°12' W 065°36'8 8.2 1021.0
2015-Apr-17 13:00N 21°18' W 065°30'2120.6 1020.8
2015-Apr-17 12:00N 21°30' W 065°12'1616.4 1020.2
2015-Apr-17 11:00N 21°42' W 065°00'2121.2 1019.8
2015-Apr-17 10:00N 22°00' W 064°48'1616.4 1019.3
2015-Apr-17 09:00N 22°12' W 064°36'2120.5 1019.0
2015-Apr-17 08:00N 22°24' W 064°18'1616.3 1019.0
2015-Apr-17 07:00N 22°36' W 064°06'1616.3 1019.2
2015-Apr-17 06:00N 22°48' W 063°54'1616.3 1019.9
2015-Apr-17 05:00N 23°00' W 063°42'1616.3 1020.6
2015-Apr-17 04:00N 23°12' W 063°30'2020.4 1021.3
2015-Apr-17 03:00N 23°24' W 063°12'2121.1 1021.6
2015-Apr-17 02:00N 23°42' W 063°00'1616.3 1021.9
2015-Apr-17 01:00N 23°54' W 062°48'2020.4 1021.6
2015-Apr-17 00:00N 24°06' W 062°30'1616.2 1021.0
2015-Apr-16 23:00N 24°18' W 062°18'1616.2 1020.5
2015-Apr-16 22:00N 24°30' W 062°06'1616.2 1020.1
2015-Apr-16 21:00N 24°42' W 061°54'2020.3 1020.0
2015-Apr-16 20:00N 24°54' W 061°36'1616.2 1020.0
2015-Apr-16 19:00N 25°06' W 061°24'2121.0 1020.1
2015-Apr-16 18:00N 25°24' W 061°12'2020.2 1020.7
2015-Apr-16 17:00N 25°36' W 060°54'1616.2 1021.2
2015-Apr-16 16:00N 25°48' W 060°42'1616.1 1021.8
2015-Apr-16 15:00N 26°00' W 060°30'2020.1 1022.0
2015-Apr-16 14:00N 26°12' W 060°12'1616.1 1022.4
2015-Apr-16 13:00N 26°24' W 060°00'1616.1 1022.1
2015-Apr-16 12:00N 26°36' W 059°48'2020.1 1021.6
2015-Apr-16 11:00N 26°48' W 059°30'1616.1 1021.2
2015-Apr-16 10:00N 27°00' W 059°18'2020.0 1020.6
2015-Apr-16 09:00N 27°12' W 059°00'2120.9 1019.9
2015-Apr-16 08:00N 27°30' W 058°48'1616.0 1019.6
2015-Apr-16 07:00N 27°42' W 058°36'1717.0 1019.6
2015-Apr-16 06:00N 27°48' W 058°18'1616.0 1019.8
2015-Apr-16 05:00N 28°00' W 058°06'2424.0 1020.6
2015-Apr-16 04:00N 28°18' W 057°48'1616.0 1021.5
2015-Apr-16 03:00N 28°30' W 057°36'1616.0 1022.2
2015-Apr-16 02:00N 28°42' W 057°24'2019.8 1022.4
2015-Apr-16 01:00N 28°54' W 057°06'1615.9 1022.7
2015-Apr-16 00:00N 29°06' W 056°54'2019.8 1023.0
2015-Apr-15 23:00N 29°18' W 056°36'1615.9 1022.6
2015-Apr-15 22:00N 29°30' W 056°24'2019.7 1022.7
2015-Apr-15 21:00N 29°42' W 056°06'1615.9 1022.7
2015-Apr-15 20:00N 29°54' W 055°54'2019.7 1023.1
2015-Apr-15 19:00N 30°06' W 055°36'1615.9 1023.4
2015-Apr-15 18:00N 30°18' W 055°24'2019.6 1024.0
2015-Apr-15 17:00N 30°30' W 055°06'1615.8 1025.0
2015-Apr-15 16:00N 30°42' W 054°54'2019.6 1025.3
2015-Apr-15 15:00N 30°54' W 054°36'2019.5 1025.9
2015-Apr-15 14:00N 31°06' W 054°18'1615.8 1026.3
2015-Apr-15 13:00N 31°18' W 054°06'1919.5 1026.3
2015-Apr-15 12:00N 31°30' W 053°48'1615.8 1026.3
2015-Apr-15 11:00N 31°42' W 053°36'1616.4 1026.2
2015-Apr-15 10:00N 31°48' W 053°18'1919.4 1025.8
2015-Apr-15 09:00N 32°00' W 053°00'1615.7 1025.7
2015-Apr-15 08:00N 32°12' W 052°48'1919.4 1025.4
2015-Apr-15 07:00N 32°24' W 052°30'1919.4 1025.6
2015-Apr-15 06:00N 32°36' W 052°12'1615.7 1025.5
2015-Apr-15 05:00N 32°48' W 052°00'1919.3 1026.5
2015-Apr-15 04:00N 33°00' W 051°42'1615.7 1027.8
2015-Apr-15 03:00N 33°12' W 051°30'1919.2 1028.5
2015-Apr-15 02:00N 33°24' W 051°12'1616.2 1028.7
2015-Apr-15 01:00N 33°30' W 050°54'1919.2 1029.4
2015-Apr-15 00:00N 33°42' W 050°36'1615.6 1029.5
2015-Apr-14 23:00N 33°54' W 050°24'1919.1 1029.8
2015-Apr-14 22:00N 34°06' W 050°06'1919.1 1029.7
2015-Apr-14 21:00N 34°18' W 049°48'1615.6 1029.7
2015-Apr-14 20:00N 34°30' W 049°36'1919.1 1029.5
2015-Apr-14 19:00N 34°42' W 049°18'1616.0 1029.5
2015-Apr-14 18:00N 34°48' W 049°00'1919.0 1029.9
2015-Apr-14 17:00N 35°00' W 048°42'1919.0 1030.4
2015-Apr-14 16:00N 35°12' W 048°24'1919.0 1030.9
2015-Apr-14 15:00N 35°24' W 048°06'1918.9 1031.2
2015-Apr-14 14:00N 35°36' W 047°48'1918.9 1031.6
2015-Apr-14 13:00N 35°48' W 047°30'1515.4 1031.9
2015-Apr-14 12:00N 36°00' W 047°18'2322.8 1031.6
2015-Apr-14 11:00N 36°12' W 046°54'1111.4 1030.9
2015-Apr-14 10:00N 36°18' W 046°42'1918.8 1030.7
2015-Apr-14 09:00N 36°30' W 046°24'1918.8 1030.2
2015-Apr-14 08:00N 36°42' W 046°06'1615.6 1029.6
2015-Apr-14 07:00N 36°48' W 045°48'1515.4 1029.3
2015-Apr-14 06:00N 37°00' W 045°36'1918.7 1029.1
2015-Apr-14 05:00N 37°12' W 045°18'1615.5 1029.0
2015-Apr-14 04:00N 37°18' W 045°00'1918.7 1029.1
2015-Apr-14 03:00N 37°30' W 044°42'1111.2 1029.0
2015-Apr-14 02:00N 37°36' W 044°30'1918.6 1028.7
2015-Apr-14 01:00N 37°48' W 044°12'1918.6 1028.4
2015-Apr-14 00:00N 38°00' W 043°54'1515.4 1028.3
2015-Apr-13 23:00N 38°06' W 043°36'1918.5 1027.7
2015-Apr-13 22:00N 38°18' W 043°18'1918.5 1026.4
2015-Apr-13 21:00N 38°30' W 043°00'1515.3 1025.1
2015-Apr-13 20:00N 38°36' W 042°42'1818.5 1024.0
2015-Apr-13 19:00N 38°48' W 042°24'1818.4 1022.9
2015-Apr-13 18:00N 39°00' W 042°06'1515.2 1022.1
2015-Apr-13 17:00N 39°06' W 041°48'1818.4 1021.5
2015-Apr-13 16:00N 39°18' W 041°30'1515.2 1021.0
2015-Apr-13 15:00N 39°24' W 041°12'2222.1 1020.8
2015-Apr-13 14:00N 39°36' W 040°48'1818.3 1020.5
2015-Apr-13 13:00N 39°48' W 040°30'1515.1 1020.2
2015-Apr-13 12:00N 39°54' W 040°12'1818.3 1019.6
2015-Apr-13 11:00N 40°06' W 039°54'1515.0 1018.3
2015-Apr-13 10:00N 40°12' W 039°36'1818.2 1016.6
2015-Apr-13 09:00N 40°24' W 039°18'1818.2 1016.3
2015-Apr-13 08:00N 40°36' W 039°00'1514.9 1016.1
2015-Apr-13 07:00N 40°42' W 038°42'1514.9 1016.0
2015-Apr-13 06:00N 40°48' W 038°24'1818.1 1016.4
2015-Apr-13 05:00N 41°00' W 038°06'1110.9 1016.6
2015-Apr-13 04:00N 41°06' W 037°54'1514.8 1017.3
2015-Apr-13 03:00N 41°12' W 037°36'1818.1 1018.2
2015-Apr-13 02:00N 41°24' W 037°18'1514.8 1019.1
2015-Apr-13 01:00N 41°30' W 037°00'1514.7 1019.9
2015-Apr-13 00:00N 41°36' W 036°42'1818.0 1020.0
2015-Apr-12 23:00N 41°48' W 036°24'1514.7 1020.7
2015-Apr-12 22:00N 41°54' W 036°06'1514.7 1020.8
2015-Apr-12 21:00N 42°00' W 035°48'1514.7 1020.5
2015-Apr-12 20:00N 42°06' W 035°30'1514.9 1020.4
2015-Apr-12 19:00N 42°18' W 035°18'1918.7 1020.8
2015-Apr-12 18:00N 42°24' W 034°54'1514.6 1021.6
2015-Apr-12 17:00N 42°30' W 034°36'1514.6 1022.1
2015-Apr-12 16:00N 42°36' W 034°18'1817.9 1022.7
2015-Apr-12 15:00N 42°48' W 034°00'1414.5 1023.4
2015-Apr-12 14:00N 42°54' W 033°42'1817.8 1024.1
2015-Apr-12 13:00N 43°06' W 033°24'1414.4 1025.0
2015-Apr-12 12:00N 43°12' W 033°06'1414.4 1025.9
2015-Apr-12 11:00N 43°18' W 032°48'1818.5 1025.9
2015-Apr-12 10:00N 43°24' W 032°24'1817.7 1025.6
2015-Apr-12 09:00N 43°36' W 032°06'1414.3 1025.9
2015-Apr-12 08:00N 43°42' W 031°48'1818.3 1026.0
2015-Apr-12 07:00N 43°48' W 031°24'1414.3 1025.4
2015-Apr-12 06:00N 43°54' W 031°06'2121.0 1025.2
2015-Apr-12 05:00N 44°06' W 030°42'1818.2 1024.9
2015-Apr-12 04:00N 44°12' W 030°18'3517.5 1024.5
2015-Apr-12 02:00N 44°30' W 029°36'1818.1 1024.4
2015-Apr-12 01:00N 44°36' W 029°12'1414.1 1024.1
2015-Apr-12 00:00N 44°42' W 028°54'2120.8 1022.8
2015-Apr-11 23:00N 44°54' W 028°30'1414.1 1021.5
2015-Apr-11 22:00N 45°00' W 028°12'1818.0 1019.9
2015-Apr-11 21:00N 45°06' W 027°48'3517.3 1017.6
2015-Apr-11 19:00N 45°24' W 027°06'1817.9 1013.0
2015-Apr-11 18:00N 45°30' W 026°42'1817.8 1010.8
2015-Apr-11 17:00N 45°36' W 026°18'3416.8 1009.9
2015-Apr-11 15:00N 45°36' W 025°30'1817.8 1006.7
2015-Apr-11 14:00N 45°42' W 025°06'1716.8 1005.4
2015-Apr-11 13:00N 45°42' W 024°42'1716.8 1006.1
2015-Apr-11 12:00N 45°42' W 024°18'2121.0 1005.9
2015-Apr-11 11:00N 45°42' W 023°48'1716.8 1005.3
2015-Apr-11 10:00N 45°42' W 023°24'2121.0 1006.9
2015-Apr-11 09:00N 45°42' W 022°54'1716.8 1010.5
2015-Apr-11 08:00N 45°42' W 022°30'3417.0 1014.3
2015-Apr-11 06:00N 45°48' W 021°42'1817.8 1018.7
2015-Apr-11 05:00N 45°54' W 021°18'1817.7 1020.3
2015-Apr-11 04:00N 46°00' W 020°54'1716.7 1021.2
2015-Apr-11 03:00N 46°00' W 020°30'1413.9 1022.0
2015-Apr-11 02:00N 46°06' W 020°12'1817.7 1022.7
2015-Apr-11 01:00N 46°12' W 019°48'1817.6 1023.0
2015-Apr-11 00:00N 46°18' W 019°24'1413.8 1023.0
2015-Apr-10 23:00N 46°24' W 019°06'1716.6 1022.9
2015-Apr-10 22:00N 46°24' W 018°42'3115.7 1021.8
2015-Apr-10 20:00N 46°36' W 018°00'1413.7 1019.0
2015-Apr-10 19:00N 46°42' W 017°42'1616.5 1017.3
2015-Apr-10 18:00N 46°42' W 017°18'1413.7 1016.9
2015-Apr-10 17:00N 46°48' W 017°00'1717.5 1015.9
2015-Apr-10 16:00N 46°54' W 016°36'1616.4 1015.2
2015-Apr-10 15:00N 46°54' W 016°12'1413.7 1015.0
2015-Apr-10 14:00N 47°00' W 015°54'1717.4 1014.5
2015-Apr-10 13:00N 47°06' W 015°30'1413.6 1013.1
2015-Apr-10 12:00N 47°12' W 015°12'1616.3 1013.8
2015-Apr-10 11:00N 47°12' W 014°48'1717.4 1014.3
2015-Apr-10 10:00N 47°18' W 014°24'1413.6 1014.8
2015-Apr-10 09:00N 47°24' W 014°06'1717.3 1014.8
2015-Apr-10 08:00N 47°30' W 013°42'3517.3 1015.6
2015-Apr-10 06:00N 47°42' W 012°54'1717.2 1015.2
2015-Apr-10 05:00N 47°48' W 012°30'1717.0 1015.2
2015-Apr-10 04:00N 48°00' W 012°12'1717.1 1015.2
2015-Apr-10 03:00N 48°06' W 011°48'1717.1 1015.6
2015-Apr-10 02:00N 48°12' W 011°24'1717.1 1016.1
2015-Apr-10 01:00N 48°18' W 011°00'2019.9 1016.8
2015-Apr-10 00:00N 48°30' W 010°36'1313.3 1017.1
2015-Apr-09 23:00N 48°36' W 010°18'1717.0 1017.7
2015-Apr-09 22:00N 48°42' W 009°54'1716.9 1018.4
2015-Apr-09 21:00N 48°48' W 009°30'1716.9 1019.1
2015-Apr-09 20:00N 48°54' W 009°06'1716.8 1019.5
2015-Apr-09 19:00N 49°06' W 008°48'1716.8 1019.9
2015-Apr-09 18:00N 49°12' W 008°24'1716.8 1020.7
2015-Apr-09 17:00N 49°18' W 008°00'1313.2 1021.2
2015-Apr-09 16:00N 49°24' W 007°42'2020.4 1021.7
2015-Apr-09 15:00N 49°30' W 007°12'2019.6 1022.6
2015-Apr-09 14:00N 49°42' W 006°48'1615.5 1023.9
2015-Apr-09 13:00N 49°42' W 006°24'1919.4 1024.6
2015-Apr-09 12:00N 49°42' W 005°54'1615.5 1025.0
2015-Apr-09 11:00N 49°42' W 005°30'1919.4 1025.3
2015-Apr-09 10:00N 49°42' W 005°00'1716.6 1025.7
2015-Apr-09 09:00N 49°48' W 004°36'1515.5 1026.0
2015-Apr-09 08:00N 49°48' W 004°12'1716.6 1026.1
2015-Apr-09 07:00N 49°54' W 003°48'1919.3 1026.3
2015-Apr-09 06:00N 49°54' W 003°18'1716.6 1026.6
2015-Apr-09 05:00N 50°00' W 002°54'2423.9 1027.1
2015-Apr-09 04:00N 50°06' W 002°18'2020.1 1027.5
2015-Apr-09 03:00N 50°12' W 001°48'2020.1 1027.9
2015-Apr-09 02:00N 50°18' W 001°18'1616.4 1028.4
2015-Apr-09 01:00N 50°24' W 000°54'1515.3 1029.0
2015-Apr-09 00:00N 50°24' W 000°30'1616.4 1029.5
2015-Apr-08 23:00N 50°30' W 000°06'2020.0 1030.2
2015-Apr-08 22:00N 50°36' E 000°24'1616.4 1030.6
2015-Apr-08 21:00N 50°42' E 000°48'1919.3 1031.4
2015-Apr-08 20:00N 50°54' E 001°12'1919.3 1032.1
2015-Apr-08 19:00N 51°06' E 001°36'1616.5 1032.3
2015-Apr-08 18:00N 51°18' E 001°54'1312.7 1032.3
2015-Apr-08 17:00N 51°24' E 002°12'1918.7 1032.3
2015-Apr-08 16:00N 51°24' E 002°42'1111.2 1032.8
2015-Apr-08 15:00N 51°24' E 003°00'1918.7 1033.2
2015-Apr-08 14:00N 51°24' E 003°30'7 7.5 1033.9
2015-Apr-08 13:00N 51°24' E 003°42'1111.2 1034.8
2015-Apr-08 12:00N 51°24' E 004°00'7 7.5 1035.3
2015-Apr-08 11:00N 51°24' E 004°12'   1035.5

Dump ship's entire track history